Terminal Aerodrome Forecast
Issued by NWS

Home | Current Version | Previous Version | Text Only | Print | Product List | Glossary On
Versions: 1 2 3 4 5 6 7 8 9 10 11 12 13 14 15 16 17 18
091
FTUS42 KMLB 040541
TAFLEE
TAF
KLEE 040541Z 0406/0506 22005KT P6SM SCT060
     FM040700 22005KT P6SM SCT030
     FM040900 22006KT P6SM OVC019
     FM041000 23007KT P6SM VCSH SCT009 BKN020
     FM041200 23008G16KT P6SM VCTS OVC019CB
      TEMPO 0412/0416 3SM TSRA OVC019CB
     FM041700 27008KT P6SM VCSH BKN025 BKN040=

USA.gov is the U.S. government's official web portal to all federal, state and local government web resources and services.